createdAt,value
2023-05-16T00:01:30.230Z,11.20
2023-05-16T00:03:32.575Z,11.10
2023-05-16T00:05:34.424Z,11.10
2023-05-16T00:07:36.590Z,11.10
2023-05-16T00:09:38.223Z,11.10
2023-05-16T00:11:40.054Z,11.20
2023-05-16T00:13:42.500Z,11.10
2023-05-16T00:15:44.239Z,11.10
2023-05-16T00:17:47.282Z,11.10
2023-05-16T00:19:50.074Z,11.10
2023-05-16T00:21:52.978Z,11.00
2023-05-16T00:23:54.757Z,11.00
2023-05-16T00:25:56.470Z,11.00
2023-05-16T00:27:58.337Z,11.10
2023-05-16T00:30:01.500Z,11.10
2023-05-16T00:32:03.357Z,11.10
2023-05-16T00:34:05.291Z,11.10
2023-05-16T00:36:07.168Z,11.10
2023-05-16T00:38:09.027Z,11.00
2023-05-16T00:40:12.566Z,11.10
2023-05-16T00:42:14.183Z,11.10
2023-05-16T00:44:16.091Z,11.20
2023-05-16T00:46:17.896Z,11.10
2023-05-16T00:48:20.956Z,11.00
2023-05-16T00:50:22.696Z,11.00
2023-05-16T00:52:24.514Z,11.10
2023-05-16T00:54:29.245Z,11.10
2023-05-16T00:56:31.171Z,11.00
2023-05-16T00:58:33.896Z,11.00
2023-05-16T01:00:36.270Z,11.00
2023-05-16T01:02:39.422Z,11.10
2023-05-16T01:04:41.832Z,11.20
2023-05-16T01:06:44.218Z,11.20
2023-05-16T01:08:45.888Z,11.10
2023-05-16T01:10:54.734Z,11.10
2023-05-16T01:12:59.255Z,11.00
2023-05-16T01:15:10.315Z,11.00
2023-05-16T01:17:21.777Z,10.90
2023-05-16T01:19:26.561Z,11.00
2023-05-16T01:21:42.540Z,10.90
2023-05-16T01:24:07.035Z,10.90
2023-05-16T01:26:14.700Z,10.80
2023-05-16T01:28:18.156Z,10.80
2023-05-16T01:30:19.954Z,10.90
2023-05-16T01:32:22.969Z,10.90
2023-05-16T01:34:24.704Z,10.80
2023-05-16T01:36:32.709Z,10.70
2023-05-16T01:38:41.761Z,10.80
2023-05-16T01:40:52.126Z,10.80
2023-05-16T01:42:55.450Z,10.80
2023-05-16T01:45:21.401Z,10.80
2023-05-16T01:47:25.518Z,10.80
2023-05-16T01:49:31.599Z,10.80
2023-05-16T01:51:33.835Z,10.80
2023-05-16T01:53:39.130Z,10.90
2023-05-16T01:55:44.319Z,10.80
2023-05-16T01:57:46.208Z,10.80
2023-05-16T01:59:47.998Z,10.80
2023-05-16T02:01:49.706Z,10.90
2023-05-16T02:03:51.639Z,10.90
2023-05-16T02:05:53.320Z,10.80
2023-05-16T02:07:55.020Z,10.80
2023-05-16T02:09:56.642Z,10.90
2023-05-16T02:11:58.294Z,10.90
2023-05-16T02:13:59.985Z,10.90
2023-05-16T02:16:02.802Z,10.90
2023-05-16T02:18:04.556Z,10.90
2023-05-16T02:20:09.857Z,10.90
2023-05-16T02:22:13.529Z,10.90
2023-05-16T02:24:15.089Z,11.10
2023-05-16T02:26:16.775Z,11.30
2023-05-16T02:28:18.478Z,11.40
2023-05-16T02:30:20.072Z,11.40
2023-05-16T02:32:22.021Z,11.30
2023-05-16T02:34:23.690Z,11.30
2023-05-16T02:36:25.682Z,11.20
2023-05-16T02:38:27.379Z,11.10
2023-05-16T02:40:29.081Z,11.10
2023-05-16T02:42:31.934Z,11.10
2023-05-16T02:44:33.555Z,11.10
2023-05-16T02:46:35.694Z,11.20
2023-05-16T02:48:37.392Z,11.30
2023-05-16T02:50:40.299Z,11.30
2023-05-16T02:52:42.009Z,11.20
2023-05-16T02:54:44.477Z,11.20
2023-05-16T02:56:47.077Z,11.20
2023-05-16T02:58:49.264Z,11.20
2023-05-16T03:00:50.976Z,11.20
2023-05-16T03:02:53.848Z,11.20
2023-05-16T03:04:56.570Z,11.20
2023-05-16T03:06:58.321Z,11.20
2023-05-16T03:08:59.951Z,11.20
2023-05-16T03:11:01.643Z,11.20
2023-05-16T03:13:03.330Z,11.20
2023-05-16T03:15:05.930Z,11.20
2023-05-16T03:17:07.603Z,11.20
2023-05-16T03:19:09.652Z,11.10
2023-05-16T03:21:11.502Z,11.10
2023-05-16T03:23:13.147Z,11.10
2023-05-16T03:25:14.913Z,11.10
2023-05-16T03:27:16.757Z,11.10
2023-05-16T03:29:18.346Z,11.00
2023-05-16T03:31:21.299Z,11.00
2023-05-16T03:33:24.414Z,11.00
2023-05-16T03:35:31.477Z,11.00
2023-05-16T03:37:33.183Z,11.00
2023-05-16T03:39:34.909Z,10.90
2023-05-16T03:41:36.657Z,10.80
2023-05-16T03:43:38.401Z,10.80
2023-05-16T03:45:40.603Z,10.80
2023-05-16T03:47:42.731Z,10.70
2023-05-16T03:49:44.419Z,10.60
2023-05-16T03:51:46.116Z,10.60
2023-05-16T03:53:47.774Z,10.60
2023-05-16T03:55:49.398Z,10.60
2023-05-16T03:57:52.419Z,10.60
2023-05-16T03:59:54.043Z,10.60
2023-05-16T04:01:56.783Z,10.60
2023-05-16T04:03:58.564Z,10.60
2023-05-16T04:06:00.382Z,10.70
2023-05-16T04:08:01.958Z,10.70
2023-05-16T04:10:04.056Z,10.70
2023-05-16T04:12:06.160Z,10.80
2023-05-16T04:14:08.058Z,10.80
2023-05-16T04:16:09.771Z,10.90
2023-05-16T04:18:13.934Z,10.90
2023-05-16T04:20:15.732Z,10.90
2023-05-16T04:22:17.482Z,10.90
2023-05-16T04:24:19.233Z,11.00
2023-05-16T04:26:22.595Z,11.00
2023-05-16T04:28:24.335Z,11.10
2023-05-16T04:30:26.079Z,11.10
2023-05-16T04:32:29.036Z,11.20
2023-05-16T04:34:33.431Z,11.30
2023-05-16T04:36:35.466Z,11.40
2023-05-16T04:38:37.762Z,11.40
2023-05-16T04:40:41.867Z,11.50
2023-05-16T04:42:43.524Z,11.50
2023-05-16T04:44:45.311Z,11.50
2023-05-16T04:46:48.170Z,11.60
2023-05-16T04:48:50.155Z,11.70
2023-05-16T04:50:52.466Z,11.70
2023-05-16T04:52:55.790Z,11.70
2023-05-16T04:55:00.367Z,11.70
2023-05-16T04:57:02.091Z,11.70
2023-05-16T04:59:04.230Z,11.70
2023-05-16T05:01:05.986Z,11.80
2023-05-16T05:03:07.889Z,11.80
2023-05-16T05:05:11.722Z,11.80
2023-05-16T05:07:15.943Z,11.80
2023-05-16T05:09:17.936Z,11.90
2023-05-16T05:11:19.745Z,12.00
2023-05-16T05:13:22.535Z,12.00
2023-05-16T05:15:24.186Z,12.10
2023-05-16T05:17:26.055Z,12.20
2023-05-16T05:19:27.870Z,12.30
2023-05-16T05:21:30.785Z,12.40
2023-05-16T05:23:32.921Z,12.40
2023-05-16T05:25:37.644Z,12.50
2023-05-16T05:27:39.601Z,12.50
2023-05-16T05:29:41.447Z,12.60
2023-05-16T05:31:43.284Z,12.60
2023-05-16T05:33:45.136Z,12.70
2023-05-16T05:35:47.841Z,12.70
2023-05-16T05:37:49.456Z,12.60
2023-05-16T05:39:51.173Z,12.40
2023-05-16T05:41:54.872Z,12.40
2023-05-16T05:43:56.620Z,12.50
2023-05-16T05:45:58.375Z,12.50
2023-05-16T05:48:00.148Z,12.60
2023-05-16T05:50:02.608Z,12.70
2023-05-16T05:52:04.587Z,12.70
2023-05-16T05:54:06.461Z,12.80
2023-05-16T05:56:08.536Z,12.80
2023-05-16T05:58:10.375Z,12.70
2023-05-16T06:00:12.270Z,12.70
2023-05-16T06:02:14.752Z,12.80
2023-05-16T06:04:16.340Z,12.70
2023-05-16T06:06:18.102Z,12.70
2023-05-16T06:08:20.055Z,12.80
2023-05-16T06:10:21.881Z,12.90
2023-05-16T06:12:23.582Z,13.00
2023-05-16T06:14:25.258Z,12.90
2023-05-16T06:16:26.966Z,13.00
2023-05-16T06:18:29.782Z,13.00
2023-05-16T06:20:31.518Z,13.10
2023-05-16T06:22:33.134Z,13.20
2023-05-16T06:24:34.720Z,13.20
2023-05-16T06:26:36.669Z,13.10
2023-05-16T06:28:38.523Z,13.20
2023-05-16T06:30:40.537Z,13.20
2023-05-16T06:32:42.152Z,13.10
2023-05-16T06:34:43.907Z,13.20
2023-05-16T06:36:45.670Z,13.20
2023-05-16T06:38:47.398Z,13.30
2023-05-16T06:40:50.159Z,13.30
2023-05-16T06:42:51.800Z,13.30
2023-05-16T06:44:54.667Z,13.40
2023-05-16T06:46:56.498Z,13.50
2023-05-16T06:48:58.307Z,13.30
2023-05-16T06:51:00.191Z,13.40
2023-05-16T06:53:02.383Z,13.40
2023-05-16T06:55:06.315Z,13.40
2023-05-16T06:57:09.127Z,13.40
2023-05-16T06:59:10.862Z,13.50
2023-05-16T07:01:12.612Z,13.30
2023-05-16T07:03:14.740Z,13.40
2023-05-16T07:05:17.051Z,13.40
2023-05-16T07:07:18.852Z,13.40
2023-05-16T07:09:20.986Z,13.30
2023-05-16T07:11:22.787Z,13.40
2023-05-16T07:13:24.565Z,13.50
2023-05-16T07:15:26.459Z,13.90
2023-05-16T07:17:28.356Z,14.10
2023-05-16T07:19:31.404Z,14.10
2023-05-16T07:21:33.061Z,14.00
2023-05-16T07:23:36.912Z,14.10
2023-05-16T07:25:38.612Z,14.00
2023-05-16T07:27:45.112Z,13.80
2023-05-16T07:29:47.161Z,13.80
2023-05-16T07:31:49.049Z,14.00
2023-05-16T07:33:51.830Z,14.10
2023-05-16T07:36:00.842Z,14.20
2023-05-16T07:38:10.442Z,14.20
2023-05-16T07:40:12.565Z,14.50
2023-05-16T07:42:14.211Z,14.50
2023-05-16T07:44:16.063Z,14.60
2023-05-16T07:46:18.811Z,14.60
2023-05-16T07:48:21.173Z,14.30
2023-05-16T07:50:22.873Z,14.20
2023-05-16T07:52:24.555Z,14.20
2023-05-16T07:54:26.216Z,14.10
2023-05-16T07:56:28.048Z,14.10
2023-05-16T07:58:29.890Z,14.20
2023-05-16T08:00:31.654Z,14.00
2023-05-16T08:02:34.236Z,13.90
2023-05-16T08:04:36.405Z,13.80
2023-05-16T08:06:38.107Z,13.60
2023-05-16T08:08:39.799Z,13.70
2023-05-16T08:10:41.564Z,13.90
2023-05-16T08:12:43.240Z,14.00
2023-05-16T08:14:45.938Z,13.60
2023-05-16T08:16:48.035Z,13.60
2023-05-16T08:18:50.096Z,13.80
2023-05-16T08:20:51.852Z,13.60
2023-05-16T08:22:53.980Z,13.50
2023-05-16T08:25:00.418Z,13.70
2023-05-16T08:27:02.093Z,13.70
2023-05-16T08:29:04.092Z,13.50
2023-05-16T08:31:05.950Z,13.50
2023-05-16T08:33:07.785Z,13.50
2023-05-16T08:35:11.083Z,13.70
2023-05-16T08:37:12.913Z,13.70
2023-05-16T08:39:14.727Z,13.40
2023-05-16T08:41:16.450Z,13.50
2023-05-16T08:43:18.150Z,13.70
2023-05-16T08:45:19.884Z,13.80
2023-05-16T08:47:22.899Z,13.20
2023-05-16T08:49:27.351Z,13.10
2023-05-16T08:51:32.542Z,13.20
2023-05-16T08:53:39.309Z,13.20
2023-05-16T08:55:41.426Z,13.30
2023-05-16T08:57:43.263Z,13.30
2023-05-16T08:59:45.068Z,13.10
2023-05-16T09:01:47.082Z,13.20
2023-05-16T09:03:49.993Z,13.30
2023-05-16T09:05:52.640Z,13.20
2023-05-16T09:07:54.321Z,13.10
2023-05-16T09:09:56.235Z,13.20
2023-05-16T09:11:58.154Z,13.10
2023-05-16T09:13:59.840Z,13.10
2023-05-16T09:16:08.367Z,13.20
2023-05-16T09:18:12.570Z,13.30
2023-05-16T09:20:18.036Z,13.00
2023-05-16T09:22:19.897Z,13.20
2023-05-16T09:24:26.019Z,13.10
2023-05-16T09:26:28.844Z,13.20
2023-05-16T09:28:30.885Z,13.10
2023-05-16T09:30:37.135Z,13.20
2023-05-16T09:32:43.038Z,13.20
2023-05-16T09:34:45.811Z,13.30
2023-05-16T09:36:47.734Z,13.30
2023-05-16T09:38:53.191Z,13.20
2023-05-16T09:40:55.526Z,13.20
2023-05-16T09:43:06.873Z,13.30
2023-05-16T09:45:11.835Z,13.30
2023-05-16T09:47:17.594Z,13.20
2023-05-16T09:49:19.263Z,13.00
2023-05-16T09:51:24.163Z,13.10
2023-05-16T09:53:30.270Z,13.10
2023-05-16T09:55:32.348Z,13.10
2023-05-16T09:57:37.055Z,13.00
2023-05-16T09:59:39.373Z,12.80
2023-05-16T10:01:41.275Z,12.80
2023-05-16T10:03:43.393Z,12.90
2023-05-16T10:05:45.686Z,13.10
2023-05-16T10:07:48.802Z,13.10
2023-05-16T10:09:52.756Z,13.00
2023-05-16T10:11:55.677Z,12.90
2023-05-16T10:13:57.830Z,12.90
2023-05-16T10:16:00.202Z,13.00
2023-05-16T10:18:03.681Z,13.20
2023-05-16T10:20:07.244Z,13.20
2023-05-16T10:22:09.687Z,13.30
2023-05-16T10:24:11.798Z,13.40
2023-05-16T10:26:14.907Z,13.50
2023-05-16T10:28:17.066Z,13.60
2023-05-16T10:30:19.544Z,13.60
2023-05-16T10:32:23.367Z,13.40
2023-05-16T10:34:25.689Z,13.40
2023-05-16T10:36:27.437Z,13.50
2023-05-16T10:38:29.741Z,13.60
2023-05-16T10:40:31.758Z,13.60
2023-05-16T10:42:33.859Z,13.70
2023-05-16T10:44:39.315Z,13.70
2023-05-16T10:46:41.139Z,13.60
2023-05-16T10:48:45.124Z,13.60
2023-05-16T10:50:46.790Z,13.40
2023-05-16T10:52:52.633Z,13.40
2023-05-16T10:54:54.426Z,13.20
2023-05-16T10:56:57.286Z,13.30
2023-05-16T10:58:59.081Z,13.40
2023-05-16T11:01:19.576Z,13.50
2023-05-16T11:03:28.709Z,13.40
2023-05-16T11:05:31.081Z,13.30
2023-05-16T11:07:34.277Z,13.50
2023-05-16T11:09:35.972Z,13.60
2023-05-16T11:11:40.837Z,13.70
2023-05-16T11:13:54.252Z,13.60
2023-05-16T11:16:24.364Z,13.70
2023-05-16T11:18:26.239Z,13.80
2023-05-16T11:20:31.421Z,13.80
2023-05-16T11:22:55.871Z,13.80
2023-05-16T11:25:02.909Z,13.60
2023-05-16T11:27:05.825Z,13.80
2023-05-16T11:29:08.547Z,13.80
2023-05-16T11:31:10.298Z,13.70
2023-05-16T11:33:13.400Z,13.70
2023-05-16T11:35:24.743Z,13.80
2023-05-16T11:37:27.454Z,13.80
2023-05-16T11:39:30.565Z,13.80
2023-05-16T11:41:32.796Z,13.90
2023-05-16T11:43:42.973Z,13.80
2023-05-16T11:45:45.708Z,13.60
2023-05-16T11:47:48.280Z,13.50
2023-05-16T11:49:50.457Z,13.60
2023-05-16T11:51:54.060Z,13.50
2023-05-16T11:53:55.786Z,13.30
2023-05-16T11:56:00.224Z,13.20
2023-05-16T11:58:03.017Z,13.10
2023-05-16T12:00:07.973Z,12.90
2023-05-16T12:02:10.056Z,13.10
2023-05-16T12:04:13.124Z,13.00
2023-05-16T12:06:15.978Z,13.30
2023-05-16T12:08:17.689Z,13.40
2023-05-16T12:10:19.505Z,13.40
2023-05-16T12:12:21.776Z,13.30
2023-05-16T12:14:23.791Z,13.20
2023-05-16T12:16:25.930Z,13.20
2023-05-16T12:18:27.864Z,13.20
2023-05-16T12:20:29.724Z,13.20
2023-05-16T12:22:31.751Z,12.90
2023-05-16T12:24:34.134Z,13.00
2023-05-16T12:26:35.883Z,13.10
2023-05-16T12:28:39.407Z,13.20
2023-05-16T12:30:42.855Z,13.30
2023-05-16T12:32:47.316Z,13.10
2023-05-16T12:34:58.918Z,13.10
2023-05-16T12:37:01.991Z,13.10
2023-05-16T12:39:04.170Z,13.10
2023-05-16T12:41:06.066Z,13.30
2023-05-16T12:43:17.982Z,13.30
2023-05-16T12:45:19.851Z,13.30
2023-05-16T12:47:21.692Z,13.40
2023-05-16T12:49:24.492Z,13.40
2023-05-16T12:51:29.722Z,13.40
2023-05-16T12:53:41.326Z,13.30
2023-05-16T12:55:45.161Z,13.50
2023-05-16T12:57:50.151Z,13.40
2023-05-16T12:59:51.953Z,13.60
2023-05-16T13:01:53.645Z,13.80
2023-05-16T13:03:55.659Z,13.80
2023-05-16T13:05:57.591Z,13.90
2023-05-16T13:07:59.380Z,13.60
2023-05-16T13:10:01.219Z,13.70
2023-05-16T13:12:02.957Z,13.70
2023-05-16T13:14:05.767Z,13.60
2023-05-16T13:16:07.548Z,13.70
2023-05-16T13:18:09.341Z,13.70
2023-05-16T13:20:14.662Z,13.80
2023-05-16T13:22:16.416Z,13.90
2023-05-16T13:24:18.102Z,13.90
2023-05-16T13:26:19.847Z,13.90
2023-05-16T13:28:21.602Z,14.00
2023-05-16T13:30:23.698Z,13.90
2023-05-16T13:32:26.048Z,13.90
2023-05-16T13:34:30.313Z,13.90
2023-05-16T13:36:41.813Z,13.70
2023-05-16T13:38:51.606Z,13.70
2023-05-16T13:40:53.391Z,13.50
2023-05-16T13:42:55.175Z,13.60
2023-05-16T13:44:56.931Z,13.30
2023-05-16T13:46:58.793Z,13.30
2023-05-16T13:49:01.949Z,13.50
2023-05-16T13:51:03.757Z,13.60
2023-05-16T13:53:05.813Z,13.50
2023-05-16T13:55:08.201Z,13.60
2023-05-16T13:57:10.163Z,13.70
2023-05-16T13:59:16.620Z,13.60
2023-05-16T14:01:22.512Z,13.40
2023-05-16T14:03:24.485Z,13.40
2023-05-16T14:05:26.507Z,13.30
2023-05-16T14:07:28.214Z,13.40
2023-05-16T14:09:30.010Z,13.40
2023-05-16T14:11:31.811Z,13.40
2023-05-16T14:13:34.744Z,13.40
2023-05-16T14:15:36.400Z,13.60
2023-05-16T14:17:38.485Z,13.80
2023-05-16T14:19:40.424Z,13.80
2023-05-16T14:21:43.181Z,13.70
2023-05-16T14:23:46.022Z,13.80
2023-05-16T14:25:47.747Z,13.50
2023-05-16T14:27:51.012Z,13.50
2023-05-16T14:29:52.870Z,13.60
2023-05-16T14:31:54.682Z,13.60
2023-05-16T14:33:56.891Z,13.50
2023-05-16T14:35:58.710Z,13.60
2023-05-16T14:38:02.130Z,13.60
2023-05-16T14:40:05.738Z,13.60
2023-05-16T14:42:08.792Z,13.70
2023-05-16T14:44:16.538Z,13.60
2023-05-16T14:46:18.469Z,13.50
2023-05-16T14:48:20.405Z,13.60
2023-05-16T14:50:22.152Z,13.50
2023-05-16T14:52:24.207Z,13.50
2023-05-16T14:54:28.319Z,13.40
2023-05-16T14:56:30.427Z,13.30
2023-05-16T14:58:32.241Z,13.30
2023-05-16T15:00:33.936Z,13.40
2023-05-16T15:02:35.724Z,13.50
2023-05-16T15:04:38.505Z,13.60
2023-05-16T15:06:40.288Z,13.50
2023-05-16T15:08:42.058Z,13.60
2023-05-16T15:10:44.778Z,13.60
2023-05-16T15:12:46.491Z,13.50
2023-05-16T15:14:48.270Z,13.50
2023-05-16T15:16:52.311Z,13.40
2023-05-16T15:18:54.244Z,13.30
2023-05-16T15:20:56.099Z,13.10
2023-05-16T15:22:57.829Z,13.00
2023-05-16T15:25:00.083Z,13.10
2023-05-16T15:27:04.089Z,13.20
2023-05-16T15:29:05.794Z,13.10
2023-05-16T15:31:07.622Z,13.10
2023-05-16T15:33:09.476Z,13.10
2023-05-16T15:35:11.337Z,13.10
2023-05-16T15:37:13.043Z,13.20
2023-05-16T15:39:14.712Z,13.20
2023-05-16T15:41:32.131Z,13.20
2023-05-16T15:43:38.333Z,13.10
2023-05-16T15:45:40.600Z,13.10
2023-05-16T15:47:43.701Z,13.10
2023-05-16T15:49:45.723Z,13.10
2023-05-16T15:51:47.751Z,13.20
2023-05-16T15:53:49.578Z,13.20
2023-05-16T15:55:52.286Z,13.10
2023-05-16T15:57:57.160Z,13.10
2023-05-16T15:59:59.364Z,13.10
2023-05-16T16:02:05.246Z,13.20
2023-05-16T16:04:07.174Z,13.20
2023-05-16T16:06:08.902Z,13.20
2023-05-16T16:08:11.631Z,13.30
2023-05-16T16:10:13.374Z,13.30
2023-05-16T16:12:15.022Z,13.30
2023-05-16T16:14:18.837Z,13.40
2023-05-16T16:16:20.675Z,13.40
2023-05-16T16:18:22.532Z,13.30
2023-05-16T16:20:24.552Z,13.30
2023-05-16T16:22:26.381Z,13.30
2023-05-16T16:24:28.054Z,13.30
2023-05-16T16:26:31.608Z,13.30
2023-05-16T16:28:33.418Z,13.30
2023-05-16T16:30:35.100Z,13.30
2023-05-16T16:32:36.916Z,13.20
2023-05-16T16:34:38.611Z,13.20
2023-05-16T16:36:40.290Z,13.20
2023-05-16T16:38:42.060Z,13.20
2023-05-16T16:40:43.769Z,13.30
2023-05-16T16:42:45.891Z,13.30
2023-05-16T16:44:47.871Z,13.20
2023-05-16T16:46:49.847Z,13.30
2023-05-16T16:48:52.348Z,13.30
2023-05-16T16:50:54.348Z,13.30
2023-05-16T16:52:56.160Z,13.30
2023-05-16T16:54:58.883Z,13.20
2023-05-16T16:57:00.872Z,13.20
2023-05-16T16:59:02.826Z,13.20
2023-05-16T17:01:04.777Z,13.30
2023-05-16T17:03:07.286Z,13.20
2023-05-16T17:05:10.084Z,13.20
2023-05-16T17:07:12.011Z,13.10
2023-05-16T17:09:17.861Z,13.20
2023-05-16T17:11:23.325Z,13.10
2023-05-16T17:13:25.269Z,13.10
2023-05-16T17:15:27.408Z,13.10
2023-05-16T17:17:29.437Z,13.10
2023-05-16T17:19:31.245Z,13.00
2023-05-16T17:21:34.796Z,13.10
2023-05-16T17:23:36.577Z,13.10
2023-05-16T17:25:38.348Z,13.10
2023-05-16T17:27:40.883Z,13.10
2023-05-16T17:29:42.603Z,13.10
2023-05-16T17:31:44.328Z,13.10
2023-05-16T17:33:46.147Z,13.10
2023-05-16T17:35:48.325Z,13.10
2023-05-16T17:37:50.576Z,13.20
2023-05-16T17:39:52.461Z,13.10
2023-05-16T17:41:55.132Z,13.30
2023-05-16T17:43:56.878Z,13.30
2023-05-16T17:45:58.955Z,13.20
2023-05-16T17:48:00.827Z,13.10
2023-05-16T17:50:02.724Z,13.20
2023-05-16T17:52:04.669Z,13.20
2023-05-16T17:54:06.597Z,13.10
2023-05-16T17:56:10.883Z,13.10
2023-05-16T17:58:12.975Z,13.10
2023-05-16T18:00:15.383Z,13.10
2023-05-16T18:02:17.614Z,13.10
2023-05-16T18:04:21.557Z,13.10
2023-05-16T18:06:23.352Z,13.10
2023-05-16T18:08:25.195Z,13.10
2023-05-16T18:10:31.531Z,13.10
2023-05-16T18:12:41.810Z,13.10
2023-05-16T18:14:45.417Z,13.10
2023-05-16T18:16:47.568Z,13.10
2023-05-16T18:18:49.317Z,13.00
2023-05-16T18:20:52.602Z,12.90
2023-05-16T18:22:54.658Z,12.90
2023-05-16T18:24:56.294Z,12.90
2023-05-16T18:27:03.867Z,12.90
2023-05-16T18:29:05.637Z,12.80
2023-05-16T18:31:07.696Z,12.80
2023-05-16T18:33:10.191Z,12.70
2023-05-16T18:35:13.193Z,12.70
2023-05-16T18:37:14.958Z,12.70
2023-05-16T18:39:18.723Z,12.60
2023-05-16T18:41:20.597Z,12.50
2023-05-16T18:43:23.344Z,12.50
2023-05-16T18:45:25.086Z,12.50
2023-05-16T18:47:27.996Z,12.50
2023-05-16T18:49:29.769Z,12.60
2023-05-16T18:51:31.412Z,12.50
2023-05-16T18:53:33.240Z,12.50
2023-05-16T18:55:34.993Z,12.40
2023-05-16T18:57:36.812Z,12.40
2023-05-16T18:59:38.633Z,12.40
2023-05-16T19:01:40.376Z,12.40
2023-05-16T19:03:44.446Z,12.40
2023-05-16T19:05:46.611Z,12.40
2023-05-16T19:07:49.095Z,12.40
2023-05-16T19:09:50.823Z,12.40
2023-05-16T19:11:52.843Z,12.40
2023-05-16T19:13:54.507Z,12.40
2023-05-16T19:15:56.174Z,12.40
2023-05-16T19:17:58.110Z,12.50
2023-05-16T19:20:01.765Z,12.50
2023-05-16T19:22:03.727Z,12.40
2023-05-16T19:24:06.686Z,12.30
2023-05-16T19:26:08.364Z,12.10
2023-05-16T19:28:12.130Z,12.10
2023-05-16T19:30:14.022Z,12.00
2023-05-16T19:32:15.877Z,12.10
2023-05-16T19:34:20.134Z,12.00
2023-05-16T19:36:22.670Z,11.90
2023-05-16T19:38:25.238Z,11.80
2023-05-16T19:40:27.105Z,11.80
2023-05-16T19:42:28.701Z,11.70
2023-05-16T19:44:30.501Z,11.80
2023-05-16T19:46:32.230Z,11.80
2023-05-16T19:50:36.904Z,11.60
2023-05-16T19:52:38.627Z,11.50
2023-05-16T19:54:41.368Z,11.50
2023-05-16T19:56:43.645Z,11.60
2023-05-16T19:58:47.478Z,11.40
2023-05-16T20:00:50.849Z,11.40
2023-05-16T20:02:52.643Z,11.40
2023-05-16T20:04:54.660Z,11.30
2023-05-16T20:06:56.495Z,11.20
2023-05-16T20:08:58.161Z,11.10
2023-05-16T20:11:00.096Z,11.00
2023-05-16T20:13:01.758Z,11.00
2023-05-16T20:15:08.151Z,10.80
2023-05-16T20:17:18.476Z,10.90
2023-05-16T20:19:23.188Z,11.00
2023-05-16T20:21:25.160Z,10.90
2023-05-16T20:23:27.043Z,10.70
2023-05-16T20:25:32.008Z,10.50
2023-05-16T20:27:33.763Z,10.40
2023-05-16T20:29:37.595Z,10.40
2023-05-16T20:31:42.700Z,10.30
2023-05-16T20:33:46.990Z,10.20
2023-05-16T20:35:48.976Z,10.20
2023-05-16T20:37:50.854Z,10.20
2023-05-16T20:39:55.602Z,10.10
2023-05-16T20:41:57.324Z,10.10
2023-05-16T20:43:59.077Z,10.10
2023-05-16T20:46:02.043Z,10.10
2023-05-16T20:48:04.216Z,10.20
2023-05-16T20:50:06.213Z,10.20
2023-05-16T20:52:09.126Z,10.20
2023-05-16T20:54:10.830Z,10.10
2023-05-16T20:56:14.533Z,10.20
2023-05-16T20:58:16.263Z,10.20
2023-05-16T21:00:18.068Z,10.20
2023-05-16T21:02:19.788Z,10.20
2023-05-16T21:04:22.612Z,10.20
2023-05-16T21:06:24.541Z,10.20
2023-05-16T21:08:26.308Z,10.10
2023-05-16T21:10:27.994Z,10.20
2023-05-16T21:12:31.906Z,10.20
2023-05-16T21:14:33.738Z,10.10
2023-05-16T21:16:35.693Z,10.10
2023-05-16T21:18:37.416Z,10.20
2023-05-16T21:20:39.290Z,10.20
2023-05-16T21:22:41.016Z,10.20
2023-05-16T21:24:42.826Z,10.20
2023-05-16T21:26:44.590Z,10.10
2023-05-16T21:30:53.221Z,10.10
2023-05-16T21:32:55.250Z,10.10
2023-05-16T21:34:57.027Z,10.10
2023-05-16T21:36:58.922Z,10.00
2023-05-16T21:39:00.696Z,10.10
2023-05-16T21:41:02.300Z,10.10
2023-05-16T21:43:03.912Z,10.00
2023-05-16T21:45:06.211Z,10.00
2023-05-16T21:47:07.931Z,9.90
2023-05-16T21:49:11.642Z,9.90
2023-05-16T21:51:13.377Z,9.80
2023-05-16T21:53:15.082Z,9.70
2023-05-16T21:55:16.896Z,9.60
2023-05-16T21:57:19.468Z,9.60
2023-05-16T21:59:23.565Z,9.50
2023-05-16T22:01:26.390Z,9.50
2023-05-16T22:03:28.154Z,9.50
2023-05-16T22:05:31.601Z,9.40
2023-05-16T22:07:33.335Z,9.30
2023-05-16T22:09:39.662Z,9.30
2023-05-16T22:11:41.276Z,9.20
2023-05-16T22:13:43.258Z,9.10
2023-05-16T22:15:52.170Z,9.10
2023-05-16T22:18:06.247Z,9.00
2023-05-16T22:20:08.381Z,9.00
2023-05-16T22:22:10.818Z,9.00
2023-05-16T22:24:12.685Z,8.90
2023-05-16T22:26:16.848Z,8.90
2023-05-16T22:28:18.720Z,8.80
2023-05-16T22:30:20.437Z,8.70
2023-05-16T22:32:22.356Z,8.80
2023-05-16T22:34:24.176Z,8.80
2023-05-16T22:36:27.070Z,8.70
2023-05-16T22:38:29.038Z,8.70
2023-05-16T22:40:30.792Z,8.60
2023-05-16T22:42:32.648Z,8.70
2023-05-16T22:44:34.367Z,8.50
2023-05-16T22:46:36.073Z,8.50
2023-05-16T22:48:37.907Z,8.40
2023-05-16T22:50:39.901Z,8.50
2023-05-16T22:52:41.917Z,8.50
2023-05-16T22:54:43.744Z,8.40
2023-05-16T22:56:46.523Z,8.40
2023-05-16T22:58:48.143Z,8.30
2023-05-16T23:00:49.775Z,8.40
2023-05-16T23:02:52.865Z,8.50
2023-05-16T23:04:54.734Z,8.40
2023-05-16T23:06:56.515Z,8.40
2023-05-16T23:09:00.007Z,8.40
2023-05-16T23:11:01.758Z,8.30
2023-05-16T23:13:03.444Z,8.30
2023-05-16T23:15:09.824Z,8.20
2023-05-16T23:17:11.680Z,8.20
2023-05-16T23:19:13.430Z,8.20
2023-05-16T23:21:15.253Z,8.10
2023-05-16T23:23:16.949Z,8.00
2023-05-16T23:25:18.687Z,7.90
2023-05-16T23:27:20.309Z,7.90
2023-05-16T23:29:22.117Z,7.80
2023-05-16T23:31:29.734Z,7.70
2023-05-16T23:33:32.505Z,7.70
2023-05-16T23:35:34.219Z,7.70
2023-05-16T23:37:36.110Z,7.70
2023-05-16T23:39:37.799Z,7.70
2023-05-16T23:41:39.449Z,7.70
2023-05-16T23:43:41.068Z,7.80
2023-05-16T23:45:44.880Z,7.70
2023-05-16T23:47:46.633Z,7.70
2023-05-16T23:49:49.317Z,7.70
2023-05-16T23:53:55.784Z,7.70
2023-05-16T23:55:57.496Z,7.70
2023-05-16T23:57:59.181Z,7.50
